sensor_id;sensor_type;location;lat;lon;timestamp;P1;durP1;ratioP1;P2;durP2;ratioP2
37049;SDS011;22958;51.232;6.826;2022-11-12T00:00:35;31.57;;;11.70;;
37049;SDS011;22958;51.232;6.826;2022-11-12T00:03:01;23.80;;;11.18;;
37049;SDS011;22958;51.232;6.826;2022-11-12T00:05:27;28.70;;;13.10;;
37049;SDS011;22958;51.232;6.826;2022-11-12T00:07:53;24.17;;;11.65;;
37049;SDS011;22958;51.232;6.826;2022-11-12T00:10:19;28.97;;;11.93;;
37049;SDS011;22958;51.232;6.826;2022-11-12T00:12:45;26.10;;;11.95;;
37049;SDS011;22958;51.232;6.826;2022-11-12T00:15:11;28.67;;;11.83;;
37049;SDS011;22958;51.232;6.826;2022-11-12T00:17:37;25.45;;;10.93;;
37049;SDS011;22958;51.232;6.826;2022-11-12T00:20:03;26.53;;;10.63;;
37049;SDS011;22958;51.232;6.826;2022-11-12T00:22:29;23.80;;;11.27;;
37049;SDS011;22958;51.232;6.826;2022-11-12T00:24:54;31.00;;;12.27;;
37049;SDS011;22958;51.232;6.826;2022-11-12T00:27:20;29.80;;;13.40;;
37049;SDS011;22958;51.232;6.826;2022-11-12T00:29:45;32.20;;;13.47;;
37049;SDS011;22958;51.232;6.826;2022-11-12T00:32:11;30.87;;;12.97;;
37049;SDS011;22958;51.232;6.826;2022-11-12T00:34:37;25.50;;;10.97;;
37049;SDS011;22958;51.232;6.826;2022-11-12T00:37:03;22.00;;;10.63;;
37049;SDS011;22958;51.232;6.826;2022-11-12T00:39:29;25.85;;;10.25;;
37049;SDS011;22958;51.232;6.826;2022-11-12T00:41:54;20.47;;;10.10;;
37049;SDS011;22958;51.232;6.826;2022-11-12T00:44:20;28.58;;;11.25;;
37049;SDS011;22958;51.232;6.826;2022-11-12T00:46:46;24.97;;;11.77;;
37049;SDS011;22958;51.232;6.826;2022-11-12T00:49:12;26.10;;;10.37;;
37049;SDS011;22958;51.232;6.826;2022-11-12T00:51:38;27.33;;;11.87;;
37049;SDS011;22958;51.232;6.826;2022-11-12T00:54:04;26.27;;;11.63;;
37049;SDS011;22958;51.232;6.826;2022-11-12T00:56:30;25.85;;;10.85;;
37049;SDS011;22958;51.232;6.826;2022-11-12T00:58:58;25.20;;;10.67;;
37049;SDS011;22958;51.232;6.826;2022-11-12T01:01:24;28.02;;;10.90;;
37049;SDS011;22958;51.232;6.826;2022-11-12T01:03:50;23.25;;;10.23;;
37049;SDS011;22958;51.232;6.826;2022-11-12T01:06:18;29.48;;;10.73;;
37049;SDS011;22958;51.232;6.826;2022-11-12T01:08:45;20.33;;;8.18;;
37049;SDS011;22958;51.232;6.826;2022-11-12T01:11:13;18.83;;;7.78;;
37049;SDS011;22958;51.232;6.826;2022-11-12T01:13:41;17.45;;;7.75;;
37049;SDS011;22958;51.232;6.826;2022-11-12T01:16:09;21.13;;;8.40;;
37049;SDS011;22958;51.232;6.826;2022-11-12T01:18:37;21.92;;;8.25;;
37049;SDS011;22958;51.232;6.826;2022-11-12T01:21:02;15.40;;;8.17;;
37049;SDS011;22958;51.232;6.826;2022-11-12T01:26:02;22.65;;;9.20;;
37049;SDS011;22958;51.232;6.826;2022-11-12T01:28:29;19.88;;;9.32;;
37049;SDS011;22958;51.232;6.826;2022-11-12T01:30:54;19.50;;;8.83;;
37049;SDS011;22958;51.232;6.826;2022-11-12T01:33:20;15.67;;;8.03;;
37049;SDS011;22958;51.232;6.826;2022-11-12T01:35:45;18.93;;;6.93;;
37049;SDS011;22958;51.232;6.826;2022-11-12T01:38:11;15.73;;;7.43;;
37049;SDS011;22958;51.232;6.826;2022-11-12T01:40:36;16.73;;;6.93;;
37049;SDS011;22958;51.232;6.826;2022-11-12T01:43:02;20.03;;;6.80;;
37049;SDS011;22958;51.232;6.826;2022-11-12T01:45:28;16.53;;;6.80;;
37049;SDS011;22958;51.232;6.826;2022-11-12T01:47:54;19.47;;;7.17;;
37049;SDS011;22958;51.232;6.826;2022-11-12T01:50:21;15.85;;;6.93;;
37049;SDS011;22958;51.232;6.826;2022-11-12T01:52:55;24.48;;;8.57;;
37049;SDS011;22958;51.232;6.826;2022-11-12T01:55:26;20.45;;;7.15;;
37049;SDS011;22958;51.232;6.826;2022-11-12T01:57:57;24.73;;;7.70;;
37049;SDS011;22958;51.232;6.826;2022-11-12T02:00:35;21.02;;;8.35;;
37049;SDS011;22958;51.232;6.826;2022-11-12T02:03:02;15.90;;;7.73;;
37049;SDS011;22958;51.232;6.826;2022-11-12T02:05:32;19.92;;;8.65;;
37049;SDS011;22958;51.232;6.826;2022-11-12T02:07:58;22.33;;;8.88;;
37049;SDS011;22958;51.232;6.826;2022-11-12T02:10:24;20.15;;;8.50;;
37049;SDS011;22958;51.232;6.826;2022-11-12T02:12:50;18.15;;;7.72;;
37049;SDS011;22958;51.232;6.826;2022-11-12T02:15:37;21.40;;;8.50;;
37049;SDS011;22958;51.232;6.826;2022-11-12T02:18:04;13.82;;;7.20;;
37049;SDS011;22958;51.232;6.826;2022-11-12T02:20:34;16.23;;;7.03;;
37049;SDS011;22958;51.232;6.826;2022-11-12T02:23:01;22.02;;;7.82;;
37049;SDS011;22958;51.232;6.826;2022-11-12T02:25:28;11.93;;;6.07;;
37049;SDS011;22958;51.232;6.826;2022-11-12T02:27:53;16.43;;;7.33;;
37049;SDS011;22958;51.232;6.826;2022-11-12T02:30:30;19.98;;;7.25;;
37049;SDS011;22958;51.232;6.826;2022-11-12T02:32:57;15.63;;;7.43;;
37049;SDS011;22958;51.232;6.826;2022-11-12T02:35:23;13.27;;;6.63;;
37049;SDS011;22958;51.232;6.826;2022-11-12T02:37:49;19.60;;;8.67;;
37049;SDS011;22958;51.232;6.826;2022-11-12T02:40:14;14.80;;;8.20;;
37049;SDS011;22958;51.232;6.826;2022-11-12T02:42:40;22.40;;;9.20;;
37049;SDS011;22958;51.232;6.826;2022-11-12T02:45:05;22.30;;;9.37;;
37049;SDS011;22958;51.232;6.826;2022-11-12T02:47:31;20.00;;;8.37;;
37049;SDS011;22958;51.232;6.826;2022-11-12T02:49:57;20.30;;;8.50;;
37049;SDS011;22958;51.232;6.826;2022-11-12T02:52:22;18.80;;;8.30;;
37049;SDS011;22958;51.232;6.826;2022-11-12T02:54:48;16.80;;;7.77;;
37049;SDS011;22958;51.232;6.826;2022-11-12T02:57:13;18.80;;;8.77;;
37049;SDS011;22958;51.232;6.826;2022-11-12T02:59:39;16.57;;;8.40;;
37049;SDS011;22958;51.232;6.826;2022-11-12T03:02:04;15.73;;;7.73;;
37049;SDS011;22958;51.232;6.826;2022-11-12T03:04:30;18.07;;;7.33;;
37049;SDS011;22958;51.232;6.826;2022-11-12T03:06:55;13.80;;;6.77;;
37049;SDS011;22958;51.232;6.826;2022-11-12T03:09:21;12.97;;;6.97;;
37049;SDS011;22958;51.232;6.826;2022-11-12T03:11:47;16.10;;;7.30;;
37049;SDS011;22958;51.232;6.826;2022-11-12T03:14:13;14.33;;;7.07;;
37049;SDS011;22958;51.232;6.826;2022-11-12T03:16:38;19.63;;;7.40;;
37049;SDS011;22958;51.232;6.826;2022-11-12T03:19:04;15.07;;;7.97;;
37049;SDS011;22958;51.232;6.826;2022-11-12T03:21:29;16.23;;;7.50;;
37049;SDS011;22958;51.232;6.826;2022-11-12T03:23:55;15.60;;;7.90;;
37049;SDS011;22958;51.232;6.826;2022-11-12T03:26:20;12.40;;;7.07;;
37049;SDS011;22958;51.232;6.826;2022-11-12T03:28:46;15.40;;;7.27;;
37049;SDS011;22958;51.232;6.826;2022-11-12T03:31:11;13.80;;;6.80;;
37049;SDS011;22958;51.232;6.826;2022-11-12T03:33:37;17.13;;;7.00;;
37049;SDS011;22958;51.232;6.826;2022-11-12T03:36:03;18.07;;;7.37;;
37049;SDS011;22958;51.232;6.826;2022-11-12T03:38:29;24.90;;;7.57;;
37049;SDS011;22958;51.232;6.826;2022-11-12T03:40:54;16.57;;;7.33;;
37049;SDS011;22958;51.232;6.826;2022-11-12T03:43:20;13.63;;;7.03;;
37049;SDS011;22958;51.232;6.826;2022-11-12T03:45:45;13.67;;;6.90;;
37049;SDS011;22958;51.232;6.826;2022-11-12T03:48:11;19.77;;;7.27;;
37049;SDS011;22958;51.232;6.826;2022-11-12T03:50:36;18.43;;;8.03;;
37049;SDS011;22958;51.232;6.826;2022-11-12T03:53:02;22.97;;;7.57;;
37049;SDS011;22958;51.232;6.826;2022-11-12T03:55:28;16.80;;;6.97;;
37049;SDS011;22958;51.232;6.826;2022-11-12T03:57:54;16.13;;;7.20;;
37049;SDS011;22958;51.232;6.826;2022-11-12T04:00:21;23.27;;;7.75;;
37049;SDS011;22958;51.232;6.826;2022-11-12T04:02:47;15.43;;;7.63;;
37049;SDS011;22958;51.232;6.826;2022-11-12T04:05:13;16.10;;;7.00;;
37049;SDS011;22958;51.232;6.826;2022-11-12T04:07:58;16.63;;;8.05;;
37049;SDS011;22958;51.232;6.826;2022-11-12T04:10:43;16.38;;;7.28;;
37049;SDS011;22958;51.232;6.826;2022-11-12T04:13:09;15.43;;;7.07;;
37049;SDS011;22958;51.232;6.826;2022-11-12T04:15:54;16.13;;;7.40;;
37049;SDS011;22958;51.232;6.826;2022-11-12T04:18:48;18.30;;;7.07;;
37049;SDS011;22958;51.232;6.826;2022-11-12T04:21:37;11.38;;;6.38;;
37049;SDS011;22958;51.232;6.826;2022-11-12T04:24:26;15.05;;;6.55;;
37049;SDS011;22958;51.232;6.826;2022-11-12T04:27:18;13.75;;;6.40;;
37049;SDS011;22958;51.232;6.826;2022-11-12T04:29:45;14.27;;;7.15;;
37049;SDS011;22958;51.232;6.826;2022-11-12T04:32:32;12.93;;;6.55;;
37049;SDS011;22958;51.232;6.826;2022-11-12T04:34:59;14.82;;;5.75;;
37049;SDS011;22958;51.232;6.826;2022-11-12T04:37:26;17.30;;;6.30;;
37049;SDS011;22958;51.232;6.826;2022-11-12T04:39:53;17.63;;;6.20;;
37049;SDS011;22958;51.232;6.826;2022-11-12T04:42:19;20.50;;;7.40;;
37049;SDS011;22958;51.232;6.826;2022-11-12T04:45:05;13.65;;;6.13;;
37049;SDS011;22958;51.232;6.826;2022-11-12T04:47:35;14.77;;;6.78;;
37049;SDS011;22958;51.232;6.826;2022-11-12T04:50:03;15.25;;;7.47;;
37049;SDS011;22958;51.232;6.826;2022-11-12T04:52:30;16.60;;;8.07;;
37049;SDS011;22958;51.232;6.826;2022-11-12T04:54:56;14.53;;;6.60;;
37049;SDS011;22958;51.232;6.826;2022-11-12T04:57:22;19.03;;;8.20;;
37049;SDS011;22958;51.232;6.826;2022-11-12T04:59:48;19.43;;;7.47;;
37049;SDS011;22958;51.232;6.826;2022-11-12T05:02:14;21.63;;;7.60;;
37049;SDS011;22958;51.232;6.826;2022-11-12T05:07:06;14.55;;;6.90;;
37049;SDS011;22958;51.232;6.826;2022-11-12T05:09:31;14.67;;;7.10;;
37049;SDS011;22958;51.232;6.826;2022-11-12T05:11:57;16.00;;;6.97;;
37049;SDS011;22958;51.232;6.826;2022-11-12T05:14:23;19.03;;;7.00;;
37049;SDS011;22958;51.232;6.826;2022-11-12T05:16:49;14.73;;;6.60;;
37049;SDS011;22958;51.232;6.826;2022-11-12T05:19:15;13.10;;;5.90;;
37049;SDS011;22958;51.232;6.826;2022-11-12T05:21:41;12.57;;;6.43;;
37049;SDS011;22958;51.232;6.826;2022-11-12T05:24:25;14.32;;;5.82;;
37049;SDS011;22958;51.232;6.826;2022-11-12T05:26:51;12.90;;;6.47;;
37049;SDS011;22958;51.232;6.826;2022-11-12T05:29:17;16.02;;;5.97;;
37049;SDS011;22958;51.232;6.826;2022-11-12T05:31:43;12.77;;;6.00;;
37049;SDS011;22958;51.232;6.826;2022-11-12T05:34:09;16.92;;;7.05;;
37049;SDS011;22958;51.232;6.826;2022-11-12T05:36:35;13.93;;;6.67;;
37049;SDS011;22958;51.232;6.826;2022-11-12T05:39:01;12.70;;;5.10;;
37049;SDS011;22958;51.232;6.826;2022-11-12T05:41:27;17.58;;;6.85;;
37049;SDS011;22958;51.232;6.826;2022-11-12T05:43:53;19.00;;;6.73;;
37049;SDS011;22958;51.232;6.826;2022-11-12T05:46:18;18.27;;;7.07;;
37049;SDS011;22958;51.232;6.826;2022-11-12T05:48:44;16.77;;;7.03;;
37049;SDS011;22958;51.232;6.826;2022-11-12T05:51:09;16.40;;;6.47;;
37049;SDS011;22958;51.232;6.826;2022-11-12T05:53:37;13.45;;;6.05;;
37049;SDS011;22958;51.232;6.826;2022-11-12T05:56:04;14.50;;;6.60;;
37049;SDS011;22958;51.232;6.826;2022-11-12T05:58:30;12.50;;;6.88;;
37049;SDS011;22958;51.232;6.826;2022-11-12T06:00:56;15.30;;;6.50;;
37049;SDS011;22958;51.232;6.826;2022-11-12T06:03:22;16.98;;;6.68;;
37049;SDS011;22958;51.232;6.826;2022-11-12T06:05:49;15.00;;;6.73;;
37049;SDS011;22958;51.232;6.826;2022-11-12T06:08:15;17.35;;;7.30;;
37049;SDS011;22958;51.232;6.826;2022-11-12T06:10:40;18.77;;;7.67;;
37049;SDS011;22958;51.232;6.826;2022-11-12T06:13:06;17.47;;;6.80;;
37049;SDS011;22958;51.232;6.826;2022-11-12T06:15:31;15.03;;;6.77;;
37049;SDS011;22958;51.232;6.826;2022-11-12T06:17:57;16.20;;;7.50;;
37049;SDS011;22958;51.232;6.826;2022-11-12T06:20:23;17.43;;;7.90;;
37049;SDS011;22958;51.232;6.826;2022-11-12T06:22:49;17.23;;;7.17;;
37049;SDS011;22958;51.232;6.826;2022-11-12T06:25:15;15.30;;;7.43;;
37049;SDS011;22958;51.232;6.826;2022-11-12T06:27:41;13.52;;;6.93;;
37049;SDS011;22958;51.232;6.826;2022-11-12T06:30:07;15.57;;;7.07;;
37049;SDS011;22958;51.232;6.826;2022-11-12T06:32:33;15.38;;;7.07;;
37049;SDS011;22958;51.232;6.826;2022-11-12T06:34:59;17.17;;;7.00;;
37049;SDS011;22958;51.232;6.826;2022-11-12T06:37:25;14.40;;;7.70;;
37049;SDS011;22958;51.232;6.826;2022-11-12T06:39:50;22.97;;;8.73;;
37049;SDS011;22958;51.232;6.826;2022-11-12T06:42:16;14.67;;;8.40;;
37049;SDS011;22958;51.232;6.826;2022-11-12T06:44:42;17.47;;;7.43;;
37049;SDS011;22958;51.232;6.826;2022-11-12T06:47:08;18.97;;;8.07;;
37049;SDS011;22958;51.232;6.826;2022-11-12T06:49:34;16.17;;;8.15;;
37049;SDS011;22958;51.232;6.826;2022-11-12T06:51:59;23.83;;;9.50;;
37049;SDS011;22958;51.232;6.826;2022-11-12T06:54:25;22.33;;;8.20;;
37049;SDS011;22958;51.232;6.826;2022-11-12T06:56:50;21.37;;;9.13;;
37049;SDS011;22958;51.232;6.826;2022-11-12T06:59:16;19.33;;;11.10;;
37049;SDS011;22958;51.232;6.826;2022-11-12T07:01:41;26.53;;;9.90;;
37049;SDS011;22958;51.232;6.826;2022-11-12T07:04:07;20.57;;;10.70;;
37049;SDS011;22958;51.232;6.826;2022-11-12T07:06:33;23.77;;;8.90;;
37049;SDS011;22958;51.232;6.826;2022-11-12T07:08:58;20.57;;;8.83;;
37049;SDS011;22958;51.232;6.826;2022-11-12T07:11:24;19.07;;;7.83;;
37049;SDS011;22958;51.232;6.826;2022-11-12T07:13:49;16.37;;;7.87;;
37049;SDS011;22958;51.232;6.826;2022-11-12T07:16:15;13.03;;;6.87;;
37049;SDS011;22958;51.232;6.826;2022-11-12T07:18:43;18.50;;;7.93;;
37049;SDS011;22958;51.232;6.826;2022-11-12T07:21:10;20.40;;;7.65;;
37049;SDS011;22958;51.232;6.826;2022-11-12T07:23:37;20.85;;;7.72;;
37049;SDS011;22958;51.232;6.826;2022-11-12T07:26:06;21.63;;;7.43;;
37049;SDS011;22958;51.232;6.826;2022-11-12T07:28:40;17.05;;;7.78;;
37049;SDS011;22958;51.232;6.826;2022-11-12T07:31:06;21.73;;;8.57;;
37049;SDS011;22958;51.232;6.826;2022-11-12T07:33:34;20.00;;;7.93;;
37049;SDS011;22958;51.232;6.826;2022-11-12T07:36:07;22.97;;;8.37;;
37049;SDS011;22958;51.232;6.826;2022-11-12T07:38:35;17.67;;;8.48;;
37049;SDS011;22958;51.232;6.826;2022-11-12T07:41:05;21.08;;;7.63;;
37049;SDS011;22958;51.232;6.826;2022-11-12T07:43:36;21.65;;;9.73;;
37049;SDS011;22958;51.232;6.826;2022-11-12T07:46:03;16.52;;;8.07;;
37049;SDS011;22958;51.232;6.826;2022-11-12T07:48:31;19.95;;;8.70;;
37049;SDS011;22958;51.232;6.826;2022-11-12T07:51:01;18.02;;;8.88;;
37049;SDS011;22958;51.232;6.826;2022-11-12T07:53:30;16.73;;;8.80;;
37049;SDS011;22958;51.232;6.826;2022-11-12T07:55:57;18.57;;;8.53;;
37049;SDS011;22958;51.232;6.826;2022-11-12T07:58:25;18.48;;;8.95;;
37049;SDS011;22958;51.232;6.826;2022-11-12T08:00:53;22.42;;;9.73;;
37049;SDS011;22958;51.232;6.826;2022-11-12T08:03:19;22.00;;;10.17;;
37049;SDS011;22958;51.232;6.826;2022-11-12T08:05:45;32.13;;;10.82;;
37049;SDS011;22958;51.232;6.826;2022-11-12T08:08:12;26.92;;;9.73;;
37049;SDS011;22958;51.232;6.826;2022-11-12T08:10:37;20.93;;;9.60;;
37049;SDS011;22958;51.232;6.826;2022-11-12T08:13:03;18.60;;;8.63;;
37049;SDS011;22958;51.232;6.826;2022-11-12T08:15:29;14.93;;;7.27;;
37049;SDS011;22958;51.232;6.826;2022-11-12T08:17:55;14.10;;;7.60;;
37049;SDS011;22958;51.232;6.826;2022-11-12T08:20:20;16.00;;;7.27;;
37049;SDS011;22958;51.232;6.826;2022-11-12T08:22:46;15.77;;;7.83;;
37049;SDS011;22958;51.232;6.826;2022-11-12T08:25:12;19.10;;;7.38;;
37049;SDS011;22958;51.232;6.826;2022-11-12T08:27:38;14.52;;;6.45;;
37049;SDS011;22958;51.232;6.826;2022-11-12T08:30:04;13.83;;;7.10;;
37049;SDS011;22958;51.232;6.826;2022-11-12T08:32:30;13.13;;;7.07;;
37049;SDS011;22958;51.232;6.826;2022-11-12T08:34:56;18.30;;;7.50;;
37049;SDS011;22958;51.232;6.826;2022-11-12T08:37:21;14.83;;;6.83;;
37049;SDS011;22958;51.232;6.826;2022-11-12T08:39:47;14.67;;;7.03;;
37049;SDS011;22958;51.232;6.826;2022-11-12T08:42:12;12.07;;;7.00;;
37049;SDS011;22958;51.232;6.826;2022-11-12T08:44:38;16.97;;;7.33;;
37049;SDS011;22958;51.232;6.826;2022-11-12T08:47:03;17.07;;;6.80;;
37049;SDS011;22958;51.232;6.826;2022-11-12T08:49:29;15.93;;;7.20;;
37049;SDS011;22958;51.232;6.826;2022-11-12T08:51:55;11.23;;;6.47;;
37049;SDS011;22958;51.232;6.826;2022-11-12T08:54:21;11.60;;;6.10;;
37049;SDS011;22958;51.232;6.826;2022-11-12T08:56:47;15.97;;;6.97;;
37049;SDS011;22958;51.232;6.826;2022-11-12T08:59:13;19.10;;;6.73;;
37049;SDS011;22958;51.232;6.826;2022-11-12T09:01:38;10.30;;;5.50;;
37049;SDS011;22958;51.232;6.826;2022-11-12T09:04:04;12.27;;;5.60;;
37049;SDS011;22958;51.232;6.826;2022-11-12T09:06:29;12.17;;;5.53;;
37049;SDS011;22958;51.232;6.826;2022-11-12T09:08:55;12.70;;;5.30;;
37049;SDS011;22958;51.232;6.826;2022-11-12T09:11:20;14.60;;;5.40;;
37049;SDS011;22958;51.232;6.826;2022-11-12T09:13:46;12.40;;;4.50;;
37049;SDS011;22958;51.232;6.826;2022-11-12T09:16:12;13.95;;;5.07;;
37049;SDS011;22958;51.232;6.826;2022-11-12T09:18:38;16.53;;;5.63;;
37049;SDS011;22958;51.232;6.826;2022-11-12T09:21:07;7.27;;;4.70;;
37049;SDS011;22958;51.232;6.826;2022-11-12T09:23:34;12.23;;;5.03;;
37049;SDS011;22958;51.232;6.826;2022-11-12T09:26:00;10.98;;;5.30;;
37049;SDS011;22958;51.232;6.826;2022-11-12T09:28:26;11.83;;;5.33;;
37049;SDS011;22958;51.232;6.826;2022-11-12T09:30:52;13.10;;;5.37;;
37049;SDS011;22958;51.232;6.826;2022-11-12T09:33:39;10.20;;;5.82;;
37049;SDS011;22958;51.232;6.826;2022-11-12T09:36:04;11.15;;;5.40;;
37049;SDS011;22958;51.232;6.826;2022-11-12T09:38:30;10.70;;;5.37;;
37049;SDS011;22958;51.232;6.826;2022-11-12T09:41:01;11.70;;;4.77;;
37049;SDS011;22958;51.232;6.826;2022-11-12T09:43:40;10.88;;;5.82;;
37049;SDS011;22958;51.232;6.826;2022-11-12T09:46:20;11.80;;;5.03;;
37049;SDS011;22958;51.232;6.826;2022-11-12T09:49:10;15.20;;;4.85;;
37049;SDS011;22958;51.232;6.826;2022-11-12T09:51:50;8.63;;;4.22;;
37049;SDS011;22958;51.232;6.826;2022-11-12T09:54:24;8.95;;;4.53;;
37049;SDS011;22958;51.232;6.826;2022-11-12T09:56:52;7.38;;;4.22;;
37049;SDS011;22958;51.232;6.826;2022-11-12T09:59:19;8.98;;;4.45;;
37049;SDS011;22958;51.232;6.826;2022-11-12T10:01:52;9.05;;;3.85;;
37049;SDS011;22958;51.232;6.826;2022-11-12T10:10:14;9.55;;;3.60;;
37049;SDS011;22958;51.232;6.826;2022-11-12T10:12:49;7.57;;;3.72;;
37049;SDS011;22958;51.232;6.826;2022-11-12T10:15:31;8.95;;;4.13;;
37049;SDS011;22958;51.232;6.826;2022-11-12T10:24:06;6.68;;;3.30;;
37049;SDS011;22958;51.232;6.826;2022-11-12T10:26:33;6.25;;;3.45;;
37049;SDS011;22958;51.232;6.826;2022-11-12T10:29:07;9.95;;;4.35;;
37049;SDS011;22958;51.232;6.826;2022-11-12T10:31:49;9.18;;;3.72;;
37049;SDS011;22958;51.232;6.826;2022-11-12T10:34:18;6.20;;;3.70;;
37049;SDS011;22958;51.232;6.826;2022-11-12T10:36:49;8.73;;;4.28;;
37049;SDS011;22958;51.232;6.826;2022-11-12T10:39:38;6.78;;;3.53;;
37049;SDS011;22958;51.232;6.826;2022-11-12T10:42:09;7.65;;;3.72;;
37049;SDS011;22958;51.232;6.826;2022-11-12T10:44:36;9.32;;;3.85;;
37049;SDS011;22958;51.232;6.826;2022-11-12T10:52:33;7.10;;;3.40;;
37049;SDS011;22958;51.232;6.826;2022-11-12T10:55:04;6.15;;;3.90;;
37049;SDS011;22958;51.232;6.826;2022-11-12T10:57:39;12.82;;;3.67;;
37049;SDS011;22958;51.232;6.826;2022-11-12T11:00:06;6.03;;;3.37;;
37049;SDS011;22958;51.232;6.826;2022-11-12T11:02:45;7.57;;;4.28;;
37049;SDS011;22958;51.232;6.826;2022-11-12T11:05:31;8.10;;;3.30;;
37049;SDS011;22958;51.232;6.826;2022-11-12T11:08:00;6.97;;;3.40;;
37049;SDS011;22958;51.232;6.826;2022-11-12T11:10:30;9.60;;;3.45;;
37049;SDS011;22958;51.232;6.826;2022-11-12T11:16:05;8.00;;;3.65;;
37049;SDS011;22958;51.232;6.826;2022-11-12T11:18:35;8.68;;;3.50;;
37049;SDS011;22958;51.232;6.826;2022-11-12T11:48:42;8.65;;;3.58;;
37049;SDS011;22958;51.232;6.826;2022-11-12T11:54:02;7.20;;;2.85;;
37049;SDS011;22958;51.232;6.826;2022-11-12T11:56:42;7.05;;;3.28;;
37049;SDS011;22958;51.232;6.826;2022-11-12T12:02:00;6.57;;;3.05;;
37049;SDS011;22958;51.232;6.826;2022-11-12T12:12:56;7.70;;;2.92;;
37049;SDS011;22958;51.232;6.826;2022-11-12T12:18:40;5.10;;;2.40;;
37049;SDS011;22958;51.232;6.826;2022-11-12T12:21:13;6.78;;;2.42;;
37049;SDS011;22958;51.232;6.826;2022-11-12T12:23:44;8.43;;;2.80;;
37049;SDS011;22958;51.232;6.826;2022-11-12T12:26:17;8.55;;;2.70;;
37049;SDS011;22958;51.232;6.826;2022-11-12T12:28:53;5.93;;;2.65;;
37049;SDS011;22958;51.232;6.826;2022-11-12T12:31:45;8.75;;;3.15;;
37049;SDS011;22958;51.232;6.826;2022-11-12T12:34:26;9.43;;;2.85;;
37049;SDS011;22958;51.232;6.826;2022-11-12T12:36:55;7.55;;;2.60;;
37049;SDS011;22958;51.232;6.826;2022-11-12T12:42:45;6.85;;;2.55;;
37049;SDS011;22958;51.232;6.826;2022-11-12T12:45:36;4.88;;;2.90;;
37049;SDS011;22958;51.232;6.826;2022-11-12T12:48:20;5.00;;;2.60;;
37049;SDS011;22958;51.232;6.826;2022-11-12T12:50:50;4.97;;;2.42;;
37049;SDS011;22958;51.232;6.826;2022-11-12T12:53:29;7.82;;;2.40;;
37049;SDS011;22958;51.232;6.826;2022-11-12T12:56:41;9.57;;;2.75;;
37049;SDS011;22958;51.232;6.826;2022-11-12T12:58:54;4.72;;;2.50;;
37049;SDS011;22958;51.232;6.826;2022-11-12T13:09:19;6.75;;;2.65;;
37049;SDS011;22958;51.232;6.826;2022-11-12T13:11:55;6.15;;;2.30;;
37049;SDS011;22958;51.232;6.826;2022-11-12T13:16:58;6.27;;;2.67;;
37049;SDS011;22958;51.232;6.826;2022-11-12T13:19:28;6.72;;;2.75;;
37049;SDS011;22958;51.232;6.826;2022-11-12T13:40:51;5.05;;;2.47;;
37049;SDS011;22958;51.232;6.826;2022-11-12T13:43:38;7.32;;;3.10;;
37049;SDS011;22958;51.232;6.826;2022-11-12T13:48:46;6.35;;;2.47;;
37049;SDS011;22958;51.232;6.826;2022-11-12T13:53:58;7.57;;;2.50;;
37049;SDS011;22958;51.232;6.826;2022-11-12T13:58:54;4.63;;;2.50;;
37049;SDS011;22958;51.232;6.826;2022-11-12T14:01:31;5.55;;;2.17;;
37049;SDS011;22958;51.232;6.826;2022-11-12T14:03:57;8.48;;;2.88;;
37049;SDS011;22958;51.232;6.826;2022-11-12T14:12:14;8.60;;;2.80;;
37049;SDS011;22958;51.232;6.826;2022-11-12T14:15:15;5.88;;;2.67;;
37049;SDS011;22958;51.232;6.826;2022-11-12T14:20:51;6.30;;;2.83;;
37049;SDS011;22958;51.232;6.826;2022-11-12T14:23:18;5.63;;;2.47;;
37049;SDS011;22958;51.232;6.826;2022-11-12T14:25:52;5.25;;;2.30;;
37049;SDS011;22958;51.232;6.826;2022-11-12T14:28:24;5.18;;;2.70;;
37049;SDS011;22958;51.232;6.826;2022-11-12T14:30:54;3.85;;;2.17;;
37049;SDS011;22958;51.232;6.826;2022-11-12T14:35:47;4.47;;;2.60;;
37049;SDS011;22958;51.232;6.826;2022-11-12T14:38:25;5.45;;;2.65;;
37049;SDS011;22958;51.232;6.826;2022-11-12T14:40:55;8.27;;;3.28;;
37049;SDS011;22958;51.232;6.826;2022-11-12T14:46:16;8.40;;;2.67;;
37049;SDS011;22958;51.232;6.826;2022-11-12T14:48:53;6.90;;;3.10;;
37049;SDS011;22958;51.232;6.826;2022-11-12T14:51:22;6.25;;;3.08;;
37049;SDS011;22958;51.232;6.826;2022-11-12T14:54:03;12.18;;;4.47;;
37049;SDS011;22958;51.232;6.826;2022-11-12T14:56:36;11.43;;;3.95;;
37049;SDS011;22958;51.232;6.826;2022-11-12T14:59:09;9.50;;;4.07;;
37049;SDS011;22958;51.232;6.826;2022-11-12T15:01:36;10.00;;;4.25;;
37049;SDS011;22958;51.232;6.826;2022-11-12T15:06:35;8.40;;;3.60;;
37049;SDS011;22958;51.232;6.826;2022-11-12T15:11:29;9.98;;;4.22;;
37049;SDS011;22958;51.232;6.826;2022-11-12T15:14:01;9.23;;;3.55;;
37049;SDS011;22958;51.232;6.826;2022-11-12T15:16:33;7.30;;;3.67;;
37049;SDS011;22958;51.232;6.826;2022-11-12T15:21:46;14.23;;;4.55;;
37049;SDS011;22958;51.232;6.826;2022-11-12T15:24:18;10.73;;;4.15;;
37049;SDS011;22958;51.232;6.826;2022-11-12T15:26:50;8.02;;;3.70;;
37049;SDS011;22958;51.232;6.826;2022-11-12T15:37:06;10.20;;;3.80;;
37049;SDS011;22958;51.232;6.826;2022-11-12T15:39:53;20.88;;;10.35;;
37049;SDS011;22958;51.232;6.826;2022-11-12T15:42:24;20.08;;;11.63;;
37049;SDS011;22958;51.232;6.826;2022-11-12T15:45:08;35.38;;;20.08;;
37049;SDS011;22958;51.232;6.826;2022-11-12T15:47:44;154.23;;;82.40;;
37049;SDS011;22958;51.232;6.826;2022-11-12T15:50:17;133.63;;;72.57;;
37049;SDS011;22958;51.232;6.826;2022-11-12T15:52:46;67.25;;;32.58;;
37049;SDS011;22958;51.232;6.826;2022-11-12T15:55:12;107.07;;;54.72;;
37049;SDS011;22958;51.232;6.826;2022-11-12T15:57:39;88.27;;;44.13;;
37049;SDS011;22958;51.232;6.826;2022-11-12T16:02:43;69.53;;;35.38;;
37049;SDS011;22958;51.232;6.826;2022-11-12T16:05:12;34.97;;;16.10;;
37049;SDS011;22958;51.232;6.826;2022-11-12T16:07:38;17.70;;;8.95;;
37049;SDS011;22958;51.232;6.826;2022-11-12T16:10:04;20.80;;;10.57;;
37049;SDS011;22958;51.232;6.826;2022-11-12T16:12:31;25.90;;;12.27;;
37049;SDS011;22958;51.232;6.826;2022-11-12T16:14:57;29.02;;;13.23;;
37049;SDS011;22958;51.232;6.826;2022-11-12T16:17:23;29.20;;;14.10;;
37049;SDS011;22958;51.232;6.826;2022-11-12T16:19:48;30.80;;;15.00;;
37049;SDS011;22958;51.232;6.826;2022-11-12T16:22:14;23.70;;;12.97;;
37049;SDS011;22958;51.232;6.826;2022-11-12T16:24:40;14.33;;;7.40;;
37049;SDS011;22958;51.232;6.826;2022-11-12T16:27:06;18.63;;;8.93;;
37049;SDS011;22958;51.232;6.826;2022-11-12T16:29:38;21.15;;;10.57;;
37049;SDS011;22958;51.232;6.826;2022-11-12T16:32:04;21.30;;;9.10;;
37049;SDS011;22958;51.232;6.826;2022-11-12T16:34:30;19.02;;;8.27;;
37049;SDS011;22958;51.232;6.826;2022-11-12T16:36:56;14.70;;;7.93;;
37049;SDS011;22958;51.232;6.826;2022-11-12T16:39:22;18.48;;;7.75;;
37049;SDS011;22958;51.232;6.826;2022-11-12T16:41:48;19.60;;;6.40;;
37049;SDS011;22958;51.232;6.826;2022-11-12T16:44:14;12.17;;;7.53;;
37049;SDS011;22958;51.232;6.826;2022-11-12T16:46:39;10.20;;;5.40;;
37049;SDS011;22958;51.232;6.826;2022-11-12T16:49:12;13.60;;;4.87;;
37049;SDS011;22958;51.232;6.826;2022-11-12T16:51:38;13.57;;;4.50;;
37049;SDS011;22958;51.232;6.826;2022-11-12T16:54:04;9.35;;;4.60;;
37049;SDS011;22958;51.232;6.826;2022-11-12T16:56:30;9.57;;;5.13;;
37049;SDS011;22958;51.232;6.826;2022-11-12T16:58:56;9.02;;;5.07;;
37049;SDS011;22958;51.232;6.826;2022-11-12T17:01:25;8.00;;;4.93;;
37049;SDS011;22958;51.232;6.826;2022-11-12T17:03:53;16.38;;;5.28;;
37049;SDS011;22958;51.232;6.826;2022-11-12T17:06:20;10.18;;;4.75;;
37049;SDS011;22958;51.232;6.826;2022-11-12T17:08:51;13.93;;;5.90;;